Littleton, IL (61452)

5:27 PM CDT on August 04, 2015 (GMT -0500)
Rushville (Inner City) | | Change Station
CLOSE
Current Station
Personal Weather Station
Location: Rushville, IL
Elevation: 666 ft
Nearby Weather Stations
Active Advisory: Flood Warning

Elev 666 ft 40.12 °N, 90.57 °W | Updated 41 seconds ago

Mostly Cloudy
Mostly Cloudy
78.4 °F
Feels Like 80 °F
N
1.1
Wind Variable Wind from East
Gusts 2.0 mph

Today
High -- | Low -- °F
--% Chance of Precip.
Yesterday
High -- | Low -- °F
Precip. -- in
6:02 AM 8:13 PM
Waning Gibbous, 74% visible
Pressure 30.01 in
Visibility 10.0 miles
Clouds Clear
Heat Index 80 °F
Dew Point 62 °F
Humidity 57%
Rainfall 0.02 in
Snow Depth Not available.
UV 4 out of 12
Pollen 6.60 out of 12
Air Quality Not available.
Flu Activity Not available.
METAR KMQB 042215Z AUTO 17004KT 10SM CLR 26/16 A3001 RMK AO2 T02550155

More Conditions Fewer Conditions

Pressure 30.01 in
Visibility 10.0 miles
Clouds Clear
Heat Index 80 °F
Dew Point 62 °F
Humidity 57%
Rainfall 0.02 in
Snow Depth Not available.
UV 4 out of 12
Pollen 6.60 out of 12
Air Quality Not available.
Flu Activity Not available.
METAR KMQB 042215Z AUTO 17004KT 10SM CLR 26/16 A3001 RMK AO2 T02550155

More Conditions Fewer Conditions

10-Day Weather Forecast

×

Almanac

Astronomy

Aug. 04, 2015 Rise Set
Actual Time
Civil Twilight
Nautical Twilight
Astronomical Twilight
Moon
Length of Visible Light
Length of Day
Tomorrow will be .
, % of the Moon is Illuminated

Today's Extremes

State Highs State Lows

Community

WunderPhotos

Upload Photos

1,844,007 photos uploaded!

WunderBlogs® & News

Nearby

Air Quality

  Air Quality AQ Index Pollutant
Not available.

Snow Depth

Station Depth Elevation

Earthquake Activity

City Distance Mag. Time & Date
Minimum magnitude displayed is 2.5.

Coastal Water Temperatures

Place Temperature

Stations

Nearby Weather Stations

Station Location Temp. Windchill Dew Point Humidity Wind Precip. Elev Updated Type
                   
Flood Warning
Statement as of 10:54 AM CDT on August 04, 2015

The Flood Warning continues for
the Illinois River at Beardstown.
* Until further notice.
* At 1045 am Tuesday the stage was 17.8 feet.
* Flood stage is 14.0 feet.
* Minor flooding is occurring and minor flooding is forecast.
* Forecast... the river will continue rising to near 17.8 feet by this
afternoon. Additional rises may be possible thereafter.
* Impact... at 18.0 feet... seepage problems begin in the Lost Creek
drainage and levee district.



                  Fld observed forecast 6am
location stg stg day time Wed Thu Fri

Illinois River
Beardstown 14 17.8 Tue 11 am 17.2 16.7 16.2



Lat... Lon 4018 9023 4012 9017 4008 9037 3999 9046
      3999 9058 4015 9043